»·PEaware :: N5055J KRNM-KBUR

N5055J :: KRNM-KBUR

FLIGHT INFORMATION

Flight Status: Arrived
Operator: Privately registered:
United States
More flights under this callsign
Pilot: Scott M. (16181)
Aircraft: Unknown
(X-EF)
More flights by this aircraft type
Origin: KRNM Ramona
United States
Destination: KBUR Bob Hope-Burbank
United States
More flights between these airports :: More routes between these airports
Route:
File this flight plan on PilotEdge
Remarks:
Altitude:
(Current/Filed)
8,500ft
Speed:
(Current/Filed)
100kts
Departed: 30-Sep-18 04:24 PM
Arrived: 30-Sep-18 05:55 PM
Distance/Time
Traveled:
100nm/1:30
Distance/Time
To Go:
Arrived

Flight Plot

Page will automatically refresh every two minutes.

Flight plan parsing failed; only flown route is shown


Map Options




Map Legend


Flown Route
Filed Route
Departure Airport
Arrival Airport
Navaid (VOR, NDB)
Fix

Horizontal Profiles

Position Reports

Time Latitude Longitude Heading Altitude Ground
Speed
30-Sep-18 16:14 33.039293 -116.908029 275 1390ft 0kts
30-Sep-18 16:15 33.039293 -116.908029 275 1390ft 0kts
30-Sep-18 16:16 33.039293 -116.908029 275 1390ft 0kts
30-Sep-18 16:17 33.039293 -116.908029 275 1390ft 0kts
30-Sep-18 16:18 33.039293 -116.908029 275 1390ft 0kts
30-Sep-18 16:19 33.039293 -116.908029 275 1390ft 0kts
30-Sep-18 16:20 33.039293 -116.908029 275 1390ft 0kts
30-Sep-18 16:21 33.039287 -116.908072 259 1390ft 1kts
30-Sep-18 16:22 33.038477 -116.907466 179 1388ft 0kts
30-Sep-18 16:23 33.038476 -116.907466 180 1388ft 0kts
30-Sep-18 16:24 33.038476 -116.907466 180 1388ft 0kts
30-Sep-18 16:25 33.038118 -116.907803 258 1387ft 11kts
30-Sep-18 16:26 33.043366 -116.921674 332 2032ft 70kts
30-Sep-18 16:27 33.061009 -116.929987 337 3022ft 70kts
30-Sep-18 16:28 33.076799 -116.938627 329 3869ft 71kts
30-Sep-18 16:29 33.094830 -116.947688 336 4763ft 72kts
30-Sep-18 16:30 33.112804 -116.957422 334 5431ft 70kts
30-Sep-18 16:31 33.131727 -116.964625 348 6000ft 71kts
30-Sep-18 16:32 33.150391 -116.973782 332 6398ft 73kts
30-Sep-18 16:33 33.168601 -116.987212 335 7095ft 75kts
30-Sep-18 16:34 33.186383 -117.000207 336 7831ft 75kts
30-Sep-18 16:35 33.204899 -117.010240 337 8361ft 69kts
30-Sep-18 16:36 33.223162 -117.020447 336 8469ft 79kts
30-Sep-18 16:37 33.241981 -117.033805 332 8475ft 78kts
30-Sep-18 16:38 33.260482 -117.047573 336 8479ft 78kts
30-Sep-18 16:39 33.279857 -117.058940 339 8483ft 77kts
30-Sep-18 16:40 33.299420 -117.068793 342 8470ft 74kts
30-Sep-18 16:41 33.318909 -117.076981 345 8477ft 73kts
30-Sep-18 16:42 33.338592 -117.084193 343 8506ft 77kts
30-Sep-18 16:43 33.358225 -117.096858 325 8465ft 81kts
30-Sep-18 16:44 33.376045 -117.112968 332 8461ft 80kts
30-Sep-18 16:45 33.395826 -117.124883 340 8458ft 79kts
30-Sep-18 16:46 33.415921 -117.136295 337 8456ft 80kts
30-Sep-18 16:47 33.435569 -117.148766 335 8453ft 81kts
30-Sep-18 16:48 33.454596 -117.162260 333 8491ft 79kts
30-Sep-18 16:49 33.473297 -117.176977 331 8491ft 80kts
30-Sep-18 16:50 33.491350 -117.192631 328 8492ft 80kts
30-Sep-18 16:51 33.508782 -117.209255 326 8493ft 80kts
30-Sep-18 16:52 33.526548 -117.224756 335 8494ft 78kts
30-Sep-18 16:53 33.545173 -117.237719 334 8495ft 77kts
30-Sep-18 16:54 33.563198 -117.251638 332 8496ft 76kts
30-Sep-18 16:55 33.580506 -117.266481 330 8497ft 76kts
30-Sep-18 16:56 33.597654 -117.281181 331 8489ft 76kts
30-Sep-18 16:57 33.614305 -117.296430 329 8489ft 75kts
30-Sep-18 16:58 33.631608 -117.309431 338 8507ft 73kts
30-Sep-18 16:59 33.650283 -117.318682 347 8507ft 72kts
30-Sep-18 17:00 33.668560 -117.329222 334 8507ft 74kts
30-Sep-18 17:01 33.685077 -117.344661 329 8507ft 75kts
30-Sep-18 17:02 33.701633 -117.359802 333 8508ft 74kts
30-Sep-18 17:03 33.719187 -117.372767 333 8508ft 74kts
30-Sep-18 17:04 33.736495 -117.388520 324 8003ft 80kts
30-Sep-18 17:05 33.754019 -117.401509 333 7490ft 74kts
30-Sep-18 17:06 33.771209 -117.415076 329 7098ft 73kts
30-Sep-18 17:07 33.788714 -117.426873 331 6760ft 72kts
30-Sep-18 17:08 33.805848 -117.440568 326 6460ft 75kts
30-Sep-18 17:09 33.821256 -117.454611 325 6489ft 68kts
30-Sep-18 17:10 33.837402 -117.468859 325 6500ft 74kts
30-Sep-18 17:11 33.852978 -117.483017 323 6494ft 65kts
30-Sep-18 17:12 33.866527 -117.496872 320 6494ft 63kts
30-Sep-18 17:13 33.879572 -117.510811 319 6495ft 63kts
30-Sep-18 17:14 33.893037 -117.524232 321 6492ft 62kts
30-Sep-18 17:15 33.907385 -117.536873 318 6515ft 65kts
30-Sep-18 17:16 33.920872 -117.549450 314 6559ft 67kts
30-Sep-18 17:17 33.931707 -117.568267 304 6516ft 71kts
30-Sep-18 17:18 33.938358 -117.591337 302 6470ft 71kts
30-Sep-18 17:19 33.950931 -117.608863 318 6474ft 68kts
30-Sep-18 17:20 33.964739 -117.624572 318 6478ft 68kts
30-Sep-18 17:21 33.979681 -117.639118 322 6480ft 69kts
30-Sep-18 17:22 33.994446 -117.653769 315 6485ft 70kts
30-Sep-18 17:23 34.007148 -117.671977 306 6487ft 71kts
30-Sep-18 17:24 34.018361 -117.691938 307 6490ft 72kts
30-Sep-18 17:25 34.030610 -117.711128 309 6493ft 72kts
30-Sep-18 17:26 34.041533 -117.731555 312 6495ft 72kts
30-Sep-18 17:27 34.053567 -117.750929 304 6499ft 73kts
30-Sep-18 17:28 34.065889 -117.769896 307 6537ft 70kts
30-Sep-18 17:29 34.076483 -117.789879 297 6191ft 71kts
30-Sep-18 17:30 34.083769 -117.812460 285 5581ft 85kts
30-Sep-18 17:31 34.092261 -117.838933 280 5065ft 83kts
30-Sep-18 17:32 34.098193 -117.865100 278 4547ft 76kts
30-Sep-18 17:33 34.104793 -117.890092 278 4520ft 81kts
30-Sep-18 17:34 34.110825 -117.916391 281 4528ft 81kts
30-Sep-18 17:35 34.117166 -117.942121 277 4500ft 78kts
30-Sep-18 17:36 34.122143 -117.967799 276 4442ft 79kts
30-Sep-18 17:37 34.127992 -117.993897 278 4091ft 80kts
30-Sep-18 17:38 34.132982 -118.019777 272 3783ft 78kts
30-Sep-18 17:39 34.135274 -118.046072 269 3367ft 80kts
30-Sep-18 17:40 34.137539 -118.072188 272 2943ft 79kts
30-Sep-18 17:41 34.139927 -118.097114 275 2640ft 73kts
30-Sep-18 17:42 34.142187 -118.121177 269 2478ft 69kts
30-Sep-18 17:43 34.143631 -118.144391 278 2364ft 70kts
30-Sep-18 17:44 34.148040 -118.167615 276 2473ft 71kts
30-Sep-18 17:45 34.153168 -118.190929 280 2497ft 72kts
30-Sep-18 17:46 34.158804 -118.213582 281 2329ft 72kts
30-Sep-18 17:47 34.165065 -118.236722 284 2146ft 72kts
30-Sep-18 17:48 34.171889 -118.259748 285 2000ft 73kts
30-Sep-18 17:49 34.178319 -118.282719 281 1909ft 71kts
30-Sep-18 17:50 34.184366 -118.304695 281 1857ft 65kts
30-Sep-18 17:51 34.188568 -118.325757 266 1799ft 62kts
30-Sep-18 17:52 34.187801 -118.346236 253 1761ft 61kts
30-Sep-18 17:53 34.186616 -118.365978 260 1598ft 54kts
30-Sep-18 17:54 34.185301 -118.384267 284 1424ft 59kts
30-Sep-18 17:55 34.198188 -118.380601 102 1098ft 58kts
30-Sep-18 17:56 34.197833 -118.364171 109 720ft 44kts
30-Sep-18 17:57 34.198535 -118.360382 358 717ft 0kts
30-Sep-18 17:58 34.198932 -118.360983 269 720ft 12kts
30-Sep-18 17:59 34.199396 -118.363900 276 724ft 10kts

Navigation Log

Ident Type
Flight plan parsing failed, navigation log unavailable